createdAt,value
2018-04-14T00:00:05.086Z,10.187
2018-04-14T00:01:04.630Z,10.25
2018-04-14T00:02:04.081Z,10.187
2018-04-14T00:03:03.999Z,10.187
2018-04-14T00:04:03.700Z,10.187
2018-04-14T00:05:03.768Z,10.187
2018-04-14T00:06:04.127Z,10.187
2018-04-14T00:07:03.577Z,10.187
2018-04-14T00:08:04.078Z,10.187
2018-04-14T00:09:03.612Z,10.125
2018-04-14T00:10:04.258Z,10.125
2018-04-14T00:11:04.314Z,10.125
2018-04-14T00:12:03.448Z,10.125
2018-04-14T00:13:08.878Z,10.125
2018-04-14T00:14:03.581Z,10.125
2018-04-14T00:15:03.891Z,10.125
2018-04-14T00:16:04.170Z,10.125
2018-04-14T00:17:03.801Z,10.125
2018-04-14T00:18:04.040Z,10.125
2018-04-14T00:19:03.395Z,10.125
2018-04-14T00:20:03.854Z,10.125
2018-04-14T00:21:04.121Z,10.125
2018-04-14T00:22:04.139Z,10.125
2018-04-14T00:23:03.379Z,10.062
2018-04-14T00:24:03.842Z,10.062
2018-04-14T00:25:04.165Z,10.062
2018-04-14T00:26:03.684Z,10.125
2018-04-14T00:27:03.303Z,10.125
2018-04-14T00:28:03.615Z,10.062
2018-04-14T00:29:03.925Z,10.125
2018-04-14T00:31:03.974Z,10.125
2018-04-14T00:32:03.511Z,10.062
2018-04-14T00:33:03.796Z,10.062
2018-04-14T00:34:04.084Z,10.125
2018-04-14T00:35:03.536Z,10.125
2018-04-14T00:36:03.784Z,10.125
2018-04-14T00:37:04.050Z,10.125
2018-04-14T00:38:04.240Z,10.125
2018-04-14T00:39:04.040Z,10.062
2018-04-14T00:40:03.587Z,10.062
2018-04-14T00:41:04.038Z,10.062
2018-04-14T00:42:03.342Z,10.062
2018-04-14T00:43:04.742Z,10.062
2018-04-14T00:44:05.684Z,10.062
2018-04-14T00:45:03.939Z,10.062
2018-04-14T00:46:04.144Z,10.062
2018-04-14T00:47:03.448Z,10
2018-04-14T00:48:03.682Z,10.062
2018-04-14T00:49:04.248Z,10
2018-04-14T00:50:03.733Z,10
2018-04-14T00:51:03.909Z,10
2018-04-14T00:52:04.370Z,10
2018-04-14T00:53:03.974Z,10
2018-04-14T00:54:03.491Z,10
2018-04-14T00:55:03.799Z,10
2018-04-14T00:56:04.124Z,10
2018-04-14T00:57:03.474Z,10
2018-04-14T00:58:03.780Z,10
2018-04-14T00:59:04.101Z,10
2018-04-14T01:00:04.075Z,10
2018-04-14T01:01:03.240Z,10
2018-04-14T01:02:03.527Z,10
2018-04-14T01:03:03.983Z,10
2018-04-14T01:04:03.344Z,10
2018-04-14T01:05:03.939Z,10
2018-04-14T01:06:04.241Z,10
2018-04-14T01:07:03.643Z,10
2018-04-14T01:08:03.888Z,10
2018-04-14T01:09:04.612Z,10
2018-04-14T01:10:04.240Z,10
2018-04-14T01:11:03.451Z,10
2018-04-14T01:12:03.861Z,10
2018-04-14T01:13:03.304Z,10
2018-04-14T01:14:03.626Z,10.062
2018-04-14T01:15:04.982Z,10.125
2018-04-14T01:16:03.898Z,10.062
2018-04-14T01:17:03.461Z,10.125
2018-04-14T01:18:03.917Z,10.125
2018-04-14T01:19:03.400Z,10.187
2018-04-14T01:20:03.821Z,10.187
2018-04-14T01:21:04.254Z,10.187
2018-04-14T01:22:03.511Z,10.187
2018-04-14T01:23:03.803Z,10.187
2018-04-14T01:24:04.280Z,10.25
2018-04-14T01:25:03.467Z,10.187
2018-04-14T01:26:03.697Z,10.25
2018-04-14T01:27:03.622Z,10.25
2018-04-14T01:28:04.046Z,10.25
2018-04-14T01:30:03.987Z,10.312
2018-04-14T01:31:03.470Z,10.312
2018-04-14T01:32:03.667Z,10.312
2018-04-14T01:34:03.240Z,10.312
2018-04-14T01:35:03.494Z,10.312
2018-04-14T01:36:03.838Z,10.312
2018-04-14T01:37:04.203Z,10.375
2018-04-14T01:38:03.675Z,10.375
2018-04-14T01:39:05.364Z,10.375
2018-04-14T01:40:03.711Z,10.375
2018-04-14T01:41:03.286Z,10.375
2018-04-14T01:42:03.389Z,10.375
2018-04-14T01:43:03.681Z,10.375
2018-04-14T01:44:04.203Z,10.375
2018-04-14T01:45:03.471Z,10.375
2018-04-14T01:46:03.813Z,10.375
2018-04-14T01:47:03.789Z,10.375
2018-04-14T01:48:04.079Z,10.375
2018-04-14T01:49:03.640Z,10.375
2018-04-14T01:50:03.979Z,10.437
2018-04-14T01:51:03.340Z,10.437
2018-04-14T01:52:03.584Z,10.437
2018-04-14T01:53:03.873Z,10.437
2018-04-14T01:54:04.182Z,10.437
2018-04-14T01:55:03.533Z,10.437
2018-04-14T01:56:03.906Z,10.437
2018-04-14T01:57:04.146Z,10.437
2018-04-14T01:58:03.442Z,10.437
2018-04-14T01:59:04.627Z,10.5
2018-04-14T02:00:03.954Z,10.437
2018-04-14T02:01:03.279Z,10.437
2018-04-14T02:02:03.641Z,10.5
2018-04-14T02:03:04.296Z,10.437
2018-04-14T02:04:03.629Z,10.5
2018-04-14T02:05:04.076Z,10.5
2018-04-14T02:06:03.584Z,10.5
2018-04-14T02:07:03.807Z,10.5
2018-04-14T02:08:04.162Z,10.5
2018-04-14T02:09:03.521Z,10.5
2018-04-14T02:10:03.901Z,10.5
2018-04-14T02:11:03.365Z,10.5
2018-04-14T02:12:03.701Z,10.5
2018-04-14T02:13:04.073Z,10.5
2018-04-14T02:14:03.304Z,10.5
2018-04-14T02:15:03.729Z,10.5
2018-04-14T02:16:03.625Z,10.5
2018-04-14T02:17:04.787Z,10.5
2018-04-14T02:18:03.882Z,10.5
2018-04-14T02:19:03.401Z,10.562
2018-04-14T02:20:03.871Z,10.5
2018-04-14T02:21:04.159Z,10.562
2018-04-14T02:22:03.526Z,10.562
2018-04-14T02:23:03.983Z,10.5
2018-04-14T02:24:04.129Z,10.562
2018-04-14T02:25:03.547Z,10.562
2018-04-14T02:26:03.965Z,10.562
2018-04-14T02:27:03.756Z,10.5
2018-04-14T02:28:03.900Z,10.562
2018-04-14T02:29:03.353Z,10.562
2018-04-14T02:30:04.059Z,10.562
2018-04-14T02:31:03.614Z,10.562
2018-04-14T02:33:04.239Z,10.562
2018-04-14T02:34:03.630Z,10.562
2018-04-14T02:35:04.096Z,10.562
2018-04-14T02:36:03.638Z,10.5
2018-04-14T02:37:03.793Z,10.562
2018-04-14T02:38:03.981Z,10.562
2018-04-14T02:39:03.824Z,10.562
2018-04-14T02:40:03.726Z,10.562
2018-04-14T02:41:03.969Z,10.562
2018-04-14T02:42:03.359Z,10.562
2018-04-14T02:43:03.694Z,10.625
2018-04-14T02:44:03.975Z,10.625
2018-04-14T02:45:04.345Z,10.625
2018-04-14T02:46:03.895Z,10.625
2018-04-14T02:47:04.129Z,10.562
2018-04-14T02:48:03.599Z,10.625
2018-04-14T02:49:04.163Z,10.625
2018-04-14T02:50:04.118Z,10.625
2018-04-14T02:51:03.563Z,10.687
2018-04-14T02:52:03.747Z,10.625
2018-04-14T02:53:04.023Z,10.687
2018-04-14T02:54:03.184Z,10.625
2018-04-14T02:55:03.494Z,10.625
2018-04-14T02:56:03.827Z,10.625
2018-04-14T02:57:04.163Z,10.625
2018-04-14T02:58:03.629Z,10.625
2018-04-14T02:59:03.896Z,10.625
2018-04-14T03:00:03.724Z,10.625
2018-04-14T03:01:03.375Z,10.625
2018-04-14T03:02:04.011Z,10.562
2018-04-14T03:03:03.432Z,10.562
2018-04-14T03:04:03.828Z,10.625
2018-04-14T03:05:04.373Z,10.562
2018-04-14T03:06:03.844Z,10.5
2018-04-14T03:07:03.354Z,10.562
2018-04-14T03:08:03.966Z,10.562
2018-04-14T03:09:04.459Z,10.5
2018-04-14T03:10:04.175Z,10.5
2018-04-14T03:11:03.569Z,10.437
2018-04-14T03:12:04.001Z,10.5
2018-04-14T03:13:03.424Z,10.5
2018-04-14T03:14:03.830Z,10.5
2018-04-14T03:15:04.453Z,10.437
2018-04-14T03:16:03.848Z,10.437
2018-04-14T03:17:04.417Z,10.437
2018-04-14T03:18:04.013Z,10.437
2018-04-14T03:19:03.656Z,10.375
2018-04-14T03:20:04.318Z,10.375
2018-04-14T03:21:03.619Z,10.375
2018-04-14T03:22:04.330Z,10.312
2018-04-14T03:23:03.977Z,10.312
2018-04-14T03:24:03.417Z,10.312
2018-04-14T03:25:03.745Z,10.312
2018-04-14T03:26:04.207Z,10.312
2018-04-14T03:27:03.679Z,10.312
2018-04-14T03:28:04.261Z,10.312
2018-04-14T03:29:04.311Z,10.312
2018-04-14T03:30:04.446Z,10.25
2018-04-14T03:31:03.869Z,10.312
2018-04-14T03:32:03.955Z,10.312
2018-04-14T03:33:03.711Z,10.312
2018-04-14T03:34:04.284Z,10.312
2018-04-14T03:35:04.055Z,10.25
2018-04-14T03:36:03.788Z,10.25
2018-04-14T03:37:03.371Z,10.25
2018-04-14T03:38:04.153Z,10.187
2018-04-14T03:39:03.975Z,10.187
2018-04-14T03:40:03.764Z,10.187
2018-04-14T03:41:03.925Z,10.187
2018-04-14T03:42:03.648Z,10.125
2018-04-14T03:43:03.431Z,10.125
2018-04-14T03:44:03.675Z,10.187
2018-04-14T03:45:05.141Z,10.125
2018-04-14T03:46:03.579Z,10.125
2018-04-14T03:47:03.784Z,10.062
2018-04-14T03:48:04.102Z,10.062
2018-04-14T03:49:04.223Z,10.062
2018-04-14T03:50:03.687Z,10.062
2018-04-14T03:51:04.585Z,10.125
2018-04-14T03:52:03.808Z,10.125
2018-04-14T03:53:03.312Z,10.062
2018-04-14T03:54:03.569Z,10.062
2018-04-14T03:55:03.952Z,10.062
2018-04-14T03:56:04.188Z,10
2018-04-14T03:57:03.517Z,10.062
2018-04-14T03:58:03.797Z,10.062
2018-04-14T03:59:04.131Z,10.062
2018-04-14T04:00:03.711Z,10.062
2018-04-14T04:01:03.962Z,10.062
2018-04-14T04:02:04.197Z,10.062
2018-04-14T04:03:03.563Z,10.062
2018-04-14T04:04:03.886Z,10.062
2018-04-14T04:05:04.462Z,10.062
2018-04-14T04:06:03.869Z,10
2018-04-14T04:07:04.213Z,10
2018-04-14T04:08:03.685Z,10
2018-04-14T04:09:04.282Z,10
2018-04-14T04:10:04.250Z,10
2018-04-14T04:11:03.559Z,10
2018-04-14T04:12:03.865Z,10
2018-04-14T04:13:03.540Z,10.062
2018-04-14T04:14:03.757Z,10.062
2018-04-14T04:15:04.147Z,10.062
2018-04-14T04:16:03.503Z,10.062
2018-04-14T04:17:03.816Z,10.062
2018-04-14T04:18:05.116Z,10.062
2018-04-14T04:19:04.568Z,10.062
2018-04-14T04:20:04.467Z,10.062
2018-04-14T04:21:03.593Z,10.062
2018-04-14T04:22:03.805Z,10.062
2018-04-14T04:23:04.063Z,10.062
2018-04-14T04:24:03.511Z,10.062
2018-04-14T04:25:04.282Z,10.062
2018-04-14T04:26:03.681Z,10.062
2018-04-14T04:27:03.993Z,10.062
2018-04-14T04:28:03.614Z,10.062
2018-04-14T04:29:03.858Z,10.062
2018-04-14T04:30:03.484Z,10.125
2018-04-14T04:31:03.882Z,10.125
2018-04-14T04:32:04.197Z,10.125
2018-04-14T04:33:03.730Z,10.125
2018-04-14T04:34:03.991Z,10.125
2018-04-14T04:35:03.213Z,10.125
2018-04-14T04:36:03.424Z,10.125
2018-04-14T04:37:03.832Z,10.125
2018-04-14T04:38:03.714Z,10.125
2018-04-14T04:39:03.633Z,10.187
2018-04-14T04:40:04.217Z,10.125
2018-04-14T04:41:03.682Z,10.125
2018-04-14T04:42:04.180Z,10.125
2018-04-14T04:43:03.534Z,10.187
2018-04-14T04:44:03.845Z,10.187
2018-04-14T04:45:04.232Z,10.187
2018-04-14T04:46:03.628Z,10.187
2018-04-14T04:47:03.947Z,10.187
2018-04-14T04:48:03.313Z,10.187
2018-04-14T04:49:03.727Z,10.187
2018-04-14T04:50:03.439Z,10.187
2018-04-14T04:51:03.828Z,10.187
2018-04-14T04:52:04.272Z,10.187
2018-04-14T04:53:03.568Z,10.187
2018-04-14T04:54:03.766Z,10.187
2018-04-14T04:55:04.015Z,10.187
2018-04-14T04:56:03.767Z,10.187
2018-04-14T04:57:04.111Z,10.125
2018-04-14T04:58:03.524Z,10.125
2018-04-14T04:59:03.802Z,10.125
2018-04-14T05:00:04.226Z,10.125
2018-04-14T05:01:03.978Z,10.125
2018-04-14T05:02:03.329Z,10.125
2018-04-14T05:03:03.665Z,10.062
2018-04-14T05:04:04.192Z,10.062
2018-04-14T05:05:04.118Z,10.125
2018-04-14T05:06:03.525Z,10.125
2018-04-14T05:07:03.811Z,10.125
2018-04-14T05:08:04.121Z,10.125
2018-04-14T05:09:03.733Z,10.125
2018-04-14T05:10:03.527Z,10.125
2018-04-14T05:11:03.854Z,10.125
2018-04-14T05:12:05.183Z,10.125
2018-04-14T05:13:03.346Z,10.125
2018-04-14T05:14:03.730Z,10.187
2018-04-14T05:15:04.061Z,10.187
2018-04-14T05:16:03.593Z,10.125
2018-04-14T05:17:03.907Z,10.125
2018-04-14T05:18:03.221Z,10.125
2018-04-14T05:19:03.708Z,10.125
2018-04-14T05:20:04.428Z,10.125
2018-04-14T05:21:03.640Z,10.125
2018-04-14T05:22:04.030Z,10.125
2018-04-14T05:23:03.466Z,10.187
2018-04-14T05:24:03.735Z,10.125
2018-04-14T05:25:03.974Z,10.125
2018-04-14T05:26:03.315Z,10.125
2018-04-14T05:27:03.622Z,10.125
2018-04-14T05:28:03.958Z,10.125
2018-04-14T05:29:03.470Z,10.187
2018-04-14T05:30:03.698Z,10.187
2018-04-14T05:31:03.466Z,10.187
2018-04-14T05:32:03.869Z,10.187
2018-04-14T05:33:04.217Z,10.187
2018-04-14T05:34:03.538Z,10.187
2018-04-14T05:35:03.752Z,10.25
2018-04-14T05:36:04.131Z,10.25
2018-04-14T05:37:03.570Z,10.25
2018-04-14T05:38:04.383Z,10.25
2018-04-14T05:39:03.842Z,10.25
2018-04-14T05:40:03.668Z,10.25
2018-04-14T05:41:03.807Z,10.25
2018-04-14T05:42:04.212Z,10.25
2018-04-14T05:43:03.744Z,10.25
2018-04-14T05:44:04.010Z,10.25
2018-04-14T05:45:03.696Z,10.25
2018-04-14T05:46:03.857Z,10.25
2018-04-14T05:47:04.157Z,10.25
2018-04-14T05:48:03.511Z,10.25
2018-04-14T05:49:03.873Z,10.25
2018-04-14T05:50:03.915Z,10.25
2018-04-14T05:51:04.170Z,10.25
2018-04-14T05:52:03.523Z,10.312
2018-04-14T05:53:03.821Z,10.375
2018-04-14T05:54:04.216Z,10.375
2018-04-14T05:55:03.834Z,10.375
2018-04-14T05:56:05.008Z,10.437
2018-04-14T05:57:03.528Z,10.375
2018-04-14T05:58:03.856Z,10.312
2018-04-14T05:59:03.469Z,10.312
2018-04-14T06:00:03.792Z,10.312
2018-04-14T06:01:04.559Z,10.25
2018-04-14T06:02:03.772Z,10.25
2018-04-14T06:03:03.228Z,10.25
2018-04-14T06:04:03.545Z,10.25
2018-04-14T06:05:03.851Z,10.25
2018-04-14T06:06:03.941Z,10.25
2018-04-14T06:07:03.313Z,10.187
2018-04-14T06:08:04.095Z,10.187
2018-04-14T06:09:03.939Z,10.187
2018-04-14T06:10:04.350Z,10.25
2018-04-14T06:11:03.443Z,10.187
2018-04-14T06:12:03.780Z,10.187
2018-04-14T06:13:04.127Z,10.25
2018-04-14T06:14:03.581Z,10.25
2018-04-14T06:15:04.366Z,10.312
2018-04-14T06:16:03.581Z,10.375
2018-04-14T06:17:03.997Z,10.375
2018-04-14T06:18:03.828Z,10.375
2018-04-14T06:19:04.016Z,10.437
2018-04-14T06:20:03.493Z,10.5
2018-04-14T06:21:03.615Z,10.5
2018-04-14T06:22:03.926Z,10.562
2018-04-14T06:23:03.417Z,10.562
2018-04-14T06:24:03.785Z,10.625
2018-04-14T06:25:03.411Z,10.625
2018-04-14T06:26:03.699Z,10.687
2018-04-14T06:27:04.241Z,10.625
2018-04-14T06:28:03.582Z,10.625
2018-04-14T06:29:04.013Z,10.687
2018-04-14T06:30:03.641Z,10.75
2018-04-14T06:31:03.812Z,10.75
2018-04-14T06:32:03.882Z,10.875
2018-04-14T06:33:03.611Z,10.875
2018-04-14T06:34:03.762Z,10.875
2018-04-14T06:35:04.096Z,10.812
2018-04-14T06:36:03.443Z,10.875
2018-04-14T06:37:03.673Z,10.937
2018-04-14T06:38:04.035Z,10.875
2018-04-14T06:39:03.674Z,10.875
2018-04-14T06:40:03.831Z,10.875
2018-04-14T06:41:04.062Z,10.937
2018-04-14T06:42:03.426Z,11
2018-04-14T06:43:03.212Z,11.062
2018-04-14T06:44:03.633Z,11.062
2018-04-14T06:45:04.406Z,11.062
2018-04-14T06:46:04.077Z,11.062
2018-04-14T06:47:04.160Z,11.125
2018-04-14T06:48:03.411Z,11.125
2018-04-14T06:49:03.701Z,11.187
2018-04-14T06:50:04.208Z,11.187
2018-04-14T06:51:03.645Z,11.187
2018-04-14T06:52:03.979Z,11.25
2018-04-14T06:53:03.489Z,11.375
2018-04-14T06:54:03.761Z,11.312
2018-04-14T06:55:03.951Z,11.437
2018-04-14T06:56:03.234Z,11.5
2018-04-14T06:57:03.561Z,11.625
2018-04-14T06:58:03.884Z,11.687
2018-04-14T06:59:04.258Z,11.812
2018-04-14T07:00:03.816Z,11.812
2018-04-14T07:01:03.274Z,11.937
2018-04-14T07:02:03.665Z,11.937
2018-04-14T07:03:03.970Z,12.125
2018-04-14T07:04:03.488Z,12.187
2018-04-14T07:05:03.860Z,12.25
2018-04-14T07:06:04.139Z,12.375
2018-04-14T07:07:03.485Z,12.562
2018-04-14T07:08:03.821Z,12.625
2018-04-14T07:09:04.503Z,12.75
2018-04-14T07:10:04.082Z,12.875
2018-04-14T07:11:03.373Z,12.875
2018-04-14T07:12:03.640Z,12.875
2018-04-14T07:13:03.885Z,12.937
2018-04-14T07:14:04.146Z,13.125
2018-04-14T07:15:03.987Z,13.437
2018-04-14T07:16:04.135Z,13.437
2018-04-14T07:17:03.556Z,13.437
2018-04-14T07:18:04.100Z,13.562
2018-04-14T07:19:03.631Z,13.687
2018-04-14T07:20:04.084Z,13.875
2018-04-14T07:21:03.336Z,14.187
2018-04-14T07:22:03.713Z,14.312
2018-04-14T07:23:04.181Z,14.437
2018-04-14T07:24:03.544Z,14.875
2018-04-14T07:25:03.813Z,15.125
2018-04-14T07:26:04.029Z,15.187
2018-04-14T07:27:03.431Z,15.187
2018-04-14T07:28:03.748Z,15.312
2018-04-14T07:29:04.103Z,15.562
2018-04-14T07:30:03.963Z,15.812
2018-04-14T07:31:04.040Z,16
2018-04-14T07:32:03.345Z,16
2018-04-14T07:33:03.641Z,15.937
2018-04-14T07:34:03.327Z,16.312
2018-04-14T07:35:03.697Z,16.562
2018-04-14T07:36:04.113Z,16.562
2018-04-14T07:37:03.667Z,16.5
2018-04-14T07:38:03.992Z,16.312
2018-04-14T07:39:03.490Z,16.062
2018-04-14T07:40:03.404Z,15.687
2018-04-14T07:41:03.922Z,15.5
2018-04-14T07:42:04.216Z,15.562
2018-04-14T07:43:03.566Z,15.25
2018-04-14T07:44:03.776Z,15.062
2018-04-14T07:45:04.242Z,15.062
2018-04-14T07:46:03.914Z,15.187
2018-04-14T07:47:03.993Z,15.25
2018-04-14T07:48:03.562Z,15.25
2018-04-14T07:49:04.137Z,15.437
2018-04-14T07:50:03.662Z,15.437
2018-04-14T07:51:03.901Z,15.437
2018-04-14T07:52:04.107Z,15.375
2018-04-14T07:53:03.656Z,15.187
2018-04-14T07:54:04.027Z,15.125
2018-04-14T07:55:03.450Z,15.25
2018-04-14T07:56:03.727Z,15.437
2018-04-14T07:57:03.638Z,15.5
2018-04-14T07:58:04.033Z,15.625
2018-04-14T07:59:03.462Z,15.875
2018-04-14T08:00:04.039Z,16.125
2018-04-14T08:01:03.660Z,16.25
2018-04-14T08:02:03.352Z,16.375
2018-04-14T08:03:03.688Z,16.562
2018-04-14T08:04:04.046Z,16.75
2018-04-14T08:05:03.668Z,17.125
2018-04-14T08:06:03.784Z,17
2018-04-14T08:07:03.204Z,17
2018-04-14T08:08:03.507Z,17.187
2018-04-14T08:09:04.263Z,17.437
2018-04-14T08:10:03.965Z,17.75
2018-04-14T08:11:04.282Z,17.812
2018-04-14T08:12:03.871Z,18.25
2018-04-14T08:13:03.433Z,18.437
2018-04-14T08:14:03.644Z,18.312
2018-04-14T08:15:04.060Z,18.312
2018-04-14T08:16:03.322Z,18.437
2018-04-14T08:17:04.024Z,18
2018-04-14T08:18:03.795Z,17.937
2018-04-14T08:19:04.149Z,17.75
2018-04-14T08:20:03.705Z,17.562
2018-04-14T08:21:03.996Z,17.437
2018-04-14T08:22:03.766Z,17.437
2018-04-14T08:23:03.820Z,17.875
2018-04-14T08:24:04.100Z,18.125
2018-04-14T08:25:03.589Z,17.937
2018-04-14T08:26:03.816Z,18.187
2018-04-14T08:27:03.982Z,18.562
2018-04-14T08:28:04.170Z,19.187
2018-04-14T08:29:03.513Z,19.562
2018-04-14T08:30:04.007Z,19.5
2018-04-14T08:31:03.609Z,19.437
2018-04-14T08:32:04.019Z,19.437
2018-04-14T08:33:03.329Z,19.875
2018-04-14T08:34:03.673Z,20.062
2018-04-14T08:35:03.922Z,19.875
2018-04-14T08:36:03.532Z,19.625
2018-04-14T08:37:03.837Z,19.312
2018-04-14T08:38:04.633Z,19.25
2018-04-14T08:39:03.758Z,19.312
2018-04-14T08:40:04.693Z,19.125
2018-04-14T08:41:03.750Z,19.062
2018-04-14T08:42:04.030Z,18.75
2018-04-14T08:43:03.308Z,18.625
2018-04-14T08:44:03.669Z,18.5
2018-04-14T08:45:04.254Z,18.562
2018-04-14T08:46:03.584Z,18.375
2018-04-14T08:47:03.328Z,18.312
2018-04-14T08:48:03.746Z,18.375
2018-04-14T08:49:04.120Z,18.187
2018-04-14T08:50:03.396Z,18
2018-04-14T08:51:04.071Z,18.125
2018-04-14T08:52:03.261Z,18.312
2018-04-14T08:53:03.707Z,18.437
2018-04-14T08:54:03.974Z,18.562
2018-04-14T08:55:04.204Z,18.75
2018-04-14T08:56:03.588Z,18.937
2018-04-14T08:57:03.812Z,19.062
2018-04-14T08:58:04.167Z,18.812
2018-04-14T08:59:03.530Z,18.687
2018-04-14T09:00:04.081Z,18.5
2018-04-14T09:01:03.340Z,18.312
2018-04-14T09:02:03.810Z,17.75
2018-04-14T09:03:04.019Z,18
2018-04-14T09:04:03.927Z,18
2018-04-14T09:05:03.882Z,18
2018-04-14T09:06:03.979Z,18
2018-04-14T09:07:03.431Z,18
2018-04-14T09:08:03.642Z,18.062
2018-04-14T09:09:03.987Z,18
2018-04-14T09:10:03.316Z,17.75
2018-04-14T09:11:03.755Z,17.875
2018-04-14T09:12:04.219Z,17.75
2018-04-14T09:13:03.755Z,17.562
2018-04-14T09:14:03.994Z,17.562
2018-04-14T09:15:04.979Z,17.625
2018-04-14T09:16:04.244Z,17.625
2018-04-14T09:17:03.881Z,17.812
2018-04-14T09:18:04.124Z,17.812
2018-04-14T09:19:03.488Z,18.312
2018-04-14T09:20:03.940Z,18.875
2018-04-14T09:21:04.234Z,19.437
2018-04-14T09:22:03.517Z,19.5
2018-04-14T09:23:03.314Z,20.062
2018-04-14T09:24:03.873Z,20.125
2018-04-14T09:25:04.143Z,20.125
2018-04-14T09:26:03.466Z,20.312
2018-04-14T09:27:03.815Z,20.562
2018-04-14T09:28:04.079Z,20.5
2018-04-14T09:29:04.264Z,20.687
2018-04-14T09:30:03.700Z,21
2018-04-14T09:31:03.916Z,21.125
2018-04-14T09:32:03.234Z,21.5
2018-04-14T09:33:03.666Z,21.5
2018-04-14T09:34:03.892Z,21.437
2018-04-14T09:35:04.144Z,21.187
2018-04-14T09:36:03.539Z,20.812
2018-04-14T09:37:03.905Z,20.937
2018-04-14T09:38:03.696Z,20.625
2018-04-14T09:39:04.336Z,20.312
2018-04-14T09:40:03.808Z,20.125
2018-04-14T09:41:03.415Z,19.625
2018-04-14T09:42:03.886Z,19.437
2018-04-14T09:43:04.145Z,19.375
2018-04-14T09:44:03.497Z,18.937
2018-04-14T09:45:03.900Z,18.812
2018-04-14T09:46:03.395Z,18.812
2018-04-14T09:47:03.635Z,18.937
2018-04-14T09:48:03.992Z,19.125
2018-04-14T09:49:03.716Z,19.375
2018-04-14T09:50:04.042Z,19.312
2018-04-14T09:51:03.336Z,19.5
2018-04-14T09:52:03.834Z,19.687
2018-04-14T09:53:04.033Z,19.75
2018-04-14T09:54:03.304Z,19.75
2018-04-14T09:55:03.759Z,19.687
2018-04-14T09:56:03.999Z,19.812
2018-04-14T09:57:03.224Z,19.625
2018-04-14T09:58:03.626Z,19.437
2018-04-14T09:59:03.989Z,19.875
2018-04-14T10:00:04.380Z,19.687
2018-04-14T10:01:03.594Z,20.25
2018-04-14T10:02:03.924Z,21.187
2018-04-14T10:03:03.490Z,21.812
2018-04-14T10:04:03.602Z,22.062
2018-04-14T10:05:04.242Z,22
2018-04-14T10:06:03.539Z,22.187
2018-04-14T10:07:03.803Z,22.5
2018-04-14T10:08:03.723Z,22.687
2018-04-14T10:09:04.042Z,22.562
2018-04-14T10:10:03.990Z,22.562
2018-04-14T10:11:03.397Z,23.125
2018-04-14T10:12:03.797Z,23.562
2018-04-14T10:13:03.781Z,23
2018-04-14T10:14:04.100Z,22.25
2018-04-14T10:15:03.963Z,22.375
2018-04-14T10:16:04.131Z,21.937
2018-04-14T10:17:03.518Z,22
2018-04-14T10:18:03.735Z,22.062
2018-04-14T10:19:03.551Z,22
2018-04-14T10:20:03.932Z,21.937
2018-04-14T10:21:03.277Z,22.187
2018-04-14T10:22:03.468Z,22.625
2018-04-14T10:23:03.754Z,22.375
2018-04-14T10:24:03.972Z,23.187
2018-04-14T10:25:04.148Z,23.5
2018-04-14T10:26:03.462Z,23.75
2018-04-14T10:27:03.857Z,23.812
2018-04-14T10:28:03.944Z,23.312
2018-04-14T10:29:03.432Z,23.187
2018-04-14T10:30:03.821Z,23
2018-04-14T10:31:04.089Z,23.125
2018-04-14T10:32:03.412Z,23
2018-04-14T10:33:03.839Z,22.562
2018-04-14T10:34:03.936Z,22.562
2018-04-14T10:35:03.581Z,22.312
2018-04-14T10:36:03.792Z,22.062
2018-04-14T10:37:03.962Z,22.125
2018-04-14T10:38:03.276Z,22.187
2018-04-14T10:39:03.536Z,21.875
2018-04-14T10:40:03.535Z,21.75
2018-04-14T10:41:04.210Z,21.875
2018-04-14T10:42:03.594Z,22
2018-04-14T10:43:03.944Z,22.375
2018-04-14T10:44:03.483Z,22.75
2018-04-14T10:45:05.030Z,22.937
2018-04-14T10:46:03.364Z,22.937
2018-04-14T10:47:04.092Z,23.062
2018-04-14T10:48:03.465Z,23.375
2018-04-14T10:49:03.750Z,23.812
2018-04-14T10:50:04.054Z,24.125
2018-04-14T10:51:03.290Z,24.125
2018-04-14T10:52:03.584Z,24.125
2018-04-14T10:53:03.837Z,23.687
2018-04-14T10:54:04.148Z,23.437
2018-04-14T10:55:03.450Z,23.25
2018-04-14T10:56:03.970Z,23.125
2018-04-14T10:57:03.345Z,23.187
2018-04-14T10:58:03.727Z,23
2018-04-14T10:59:03.993Z,23.062
2018-04-14T11:00:03.332Z,23.062
2018-04-14T11:01:03.992Z,23.312
2018-04-14T11:02:03.310Z,23.5
2018-04-14T11:03:03.746Z,23.5
2018-04-14T11:04:04.002Z,23.187
2018-04-14T11:05:03.600Z,22.75
2018-04-14T11:06:03.834Z,22.312
2018-04-14T11:07:04.156Z,22.062
2018-04-14T11:08:04.252Z,22.562
2018-04-14T11:09:05.042Z,22.875
2018-04-14T11:10:04.230Z,23
2018-04-14T11:11:03.487Z,23.312
2018-04-14T11:12:03.417Z,23.375
2018-04-14T11:13:03.725Z,23.062
2018-04-14T11:14:04.108Z,22.812
2018-04-14T11:15:03.896Z,22.687
2018-04-14T11:16:04.052Z,22.562
2018-04-14T11:17:03.477Z,22.187
2018-04-14T11:18:03.988Z,22.375
2018-04-14T11:19:04.068Z,22.437
2018-04-14T11:20:03.671Z,22.562
2018-04-14T11:21:03.901Z,22.5
2018-04-14T11:22:03.276Z,22.562
2018-04-14T11:23:03.510Z,22.312
2018-04-14T11:24:03.775Z,21.875
2018-04-14T11:25:04.129Z,21.75
2018-04-14T11:26:03.374Z,21.562
2018-04-14T11:27:03.776Z,21.375
2018-04-14T11:28:03.304Z,21.125
2018-04-14T11:29:03.595Z,21.062
2018-04-14T11:30:03.884Z,20.687
2018-04-14T11:31:03.250Z,20.562
2018-04-14T11:32:03.617Z,20.437
2018-04-14T11:33:03.969Z,20.312
2018-04-14T11:34:03.307Z,19.937
2018-04-14T11:35:03.881Z,19.437
2018-04-14T11:36:04.087Z,19.125
2018-04-14T11:37:03.496Z,18.75
2018-04-14T11:38:03.302Z,18
2018-04-14T11:39:04.126Z,17.437
2018-04-14T11:40:03.874Z,17.125
2018-04-14T11:41:03.520Z,16.5
2018-04-14T11:42:03.973Z,16.437
2018-04-14T11:43:03.333Z,16.5
2018-04-14T11:44:03.649Z,16.187
2018-04-14T11:45:03.981Z,15.875
2018-04-14T11:46:03.942Z,15.812
2018-04-14T11:47:03.297Z,15.625
2018-04-14T11:48:03.659Z,14.5
2018-04-14T11:49:03.595Z,14.25
2018-04-14T11:50:03.891Z,14.312
2018-04-14T11:51:04.158Z,13.937
2018-04-14T11:52:03.477Z,13.75
2018-04-14T11:53:03.740Z,13.562
2018-04-14T11:54:04.115Z,13.25
2018-04-14T11:55:03.481Z,13.437
2018-04-14T11:56:04.076Z,13.25
2018-04-14T11:57:03.387Z,13.125
2018-04-14T11:58:03.717Z,13.062
2018-04-14T11:59:04.060Z,13.187
2018-04-14T12:00:03.519Z,13.375
2018-04-14T12:01:04.308Z,13.312
2018-04-14T12:02:03.710Z,13.5
2018-04-14T12:03:03.946Z,13.625
2018-04-14T12:04:03.350Z,13.625
2018-04-14T12:05:03.688Z,13.687
2018-04-14T12:06:03.914Z,13.562
2018-04-14T12:07:03.285Z,13.5
2018-04-14T12:08:03.488Z,13.375
2018-04-14T12:09:04.065Z,13.437
2018-04-14T12:10:03.544Z,13.437
2018-04-14T12:11:03.945Z,13.312
2018-04-14T12:12:03.402Z,13.312
2018-04-14T12:13:03.566Z,13.25
2018-04-14T12:14:03.875Z,13.562
2018-04-14T12:15:03.463Z,13.687
2018-04-14T12:16:03.693Z,13.937
2018-04-14T12:17:04.187Z,14.187
2018-04-14T12:18:03.501Z,14.437
2018-04-14T12:19:03.466Z,14.5
2018-04-14T12:20:04.396Z,14.437
2018-04-14T12:21:03.645Z,14.062
2018-04-14T12:22:03.939Z,14.125
2018-04-14T12:23:03.649Z,14.25
2018-04-14T12:24:03.956Z,14.375
2018-04-14T12:25:03.389Z,14.437
2018-04-14T12:26:03.850Z,14.437
2018-04-14T12:27:04.091Z,14.187
2018-04-14T12:28:03.527Z,14.312
2018-04-14T12:29:03.787Z,14.312
2018-04-14T12:30:04.587Z,14.312
2018-04-14T12:31:03.724Z,14.25
2018-04-14T12:32:04.115Z,14.25
2018-04-14T12:33:03.463Z,14.187
2018-04-14T12:34:03.769Z,14.125
2018-04-14T12:35:04.193Z,14.125
2018-04-14T12:36:03.533Z,14.062
2018-04-14T12:37:03.878Z,14.25
2018-04-14T12:38:03.600Z,14.312
2018-04-14T12:39:04.260Z,14.812
2018-04-14T12:40:04.087Z,15.25
2018-04-14T12:41:03.448Z,15.562
2018-04-14T12:42:03.865Z,15.812
2018-04-14T12:43:03.445Z,15.687
2018-04-14T12:44:03.725Z,15.25
2018-04-14T12:45:04.418Z,15.187